sensor_id;sensor_type;location;lat;lon;timestamp;temperature;humidity
24632;DHT22;59977;48.782;9.190;2022-07-29T20:56:56;22.50;99.90
24632;DHT22;59977;48.782;9.190;2022-07-29T20:59:22;22.80;99.90
24632;DHT22;59977;48.782;9.190;2022-07-29T21:01:47;22.90;99.90
24632;DHT22;59977;48.782;9.190;2022-07-29T21:04:14;22.90;99.90
24632;DHT22;59977;48.782;9.190;2022-07-29T21:06:40;23.00;99.90
24632;DHT22;59977;48.782;9.190;2022-07-29T21:09:06;23.00;99.90
24632;DHT22;59977;48.782;9.190;2022-07-29T21:11:32;23.00;99.90
24632;DHT22;59977;48.782;9.190;2022-07-29T21:13:57;23.10;99.90
24632;DHT22;59977;48.782;9.190;2022-07-29T21:16:23;23.10;99.90
24632;DHT22;59977;48.782;9.190;2022-07-29T21:18:50;23.00;99.90
24632;DHT22;59977;48.782;9.190;2022-07-29T21:21:16;22.90;99.90
24632;DHT22;59977;48.782;9.190;2022-07-29T21:23:43;23.00;99.90
24632;DHT22;59977;48.782;9.190;2022-07-29T21:26:09;22.90;99.90
24632;DHT22;59977;48.782;9.190;2022-07-29T21:28:35;22.90;99.90
24632;DHT22;59977;48.782;9.190;2022-07-29T21:31:11;22.90;99.90
24632;DHT22;59977;48.782;9.190;2022-07-29T21:33:38;22.90;99.90
24632;DHT22;59977;48.782;9.190;2022-07-29T21:36:05;22.90;99.90
24632;DHT22;59977;48.782;9.190;2022-07-29T21:38:32;22.70;99.90
24632;DHT22;59977;48.782;9.190;2022-07-29T21:40:57;22.50;99.90
24632;DHT22;59977;48.782;9.190;2022-07-29T21:43:24;22.40;99.90
24632;DHT22;59977;48.782;9.190;2022-07-29T21:45:51;22.50;99.90
24632;DHT22;59977;48.782;9.190;2022-07-29T21:48:22;22.60;99.90
24632;DHT22;59977;48.782;9.190;2022-07-29T21:50:48;22.50;99.90
24632;DHT22;59977;48.782;9.190;2022-07-29T21:53:14;22.50;99.90
24632;DHT22;59977;48.782;9.190;2022-07-29T21:55:40;22.50;99.90
24632;DHT22;59977;48.782;9.190;2022-07-29T21:58:06;22.50;99.90
24632;DHT22;59977;48.782;9.190;2022-07-29T22:00:33;22.40;99.90
24632;DHT22;59977;48.782;9.190;2022-07-29T22:03:03;22.40;99.90
24632;DHT22;59977;48.782;9.190;2022-07-29T22:05:29;22.30;99.90
24632;DHT22;59977;48.782;9.190;2022-07-29T22:07:55;22.20;99.90
24632;DHT22;59977;48.782;9.190;2022-07-29T22:10:21;22.20;99.90
24632;DHT22;59977;48.782;9.190;2022-07-29T22:12:52;22.10;99.90
24632;DHT22;59977;48.782;9.190;2022-07-29T22:15:18;22.00;99.90
24632;DHT22;59977;48.782;9.190;2022-07-29T22:17:44;22.00;99.90
24632;DHT22;59977;48.782;9.190;2022-07-29T22:20:10;22.00;99.90
24632;DHT22;59977;48.782;9.190;2022-07-29T22:22:36;22.00;99.90
24632;DHT22;59977;48.782;9.190;2022-07-29T22:25:02;21.90;99.90
24632;DHT22;59977;48.782;9.190;2022-07-29T22:27:28;21.80;99.90
24632;DHT22;59977;48.782;9.190;2022-07-29T22:29:53;21.80;99.90
24632;DHT22;59977;48.782;9.190;2022-07-29T22:32:19;21.80;99.90
24632;DHT22;59977;48.782;9.190;2022-07-29T22:34:45;21.70;99.90
24632;DHT22;59977;48.782;9.190;2022-07-29T22:37:10;21.70;99.90
24632;DHT22;59977;48.782;9.190;2022-07-29T22:39:36;21.60;99.90
24632;DHT22;59977;48.782;9.190;2022-07-29T22:42:02;21.60;99.90
24632;DHT22;59977;48.782;9.190;2022-07-29T22:44:27;21.60;99.90
24632;DHT22;59977;48.782;9.190;2022-07-29T22:46:53;21.60;99.90
24632;DHT22;59977;48.782;9.190;2022-07-29T22:49:19;21.60;99.90
24632;DHT22;59977;48.782;9.190;2022-07-29T22:51:44;21.60;99.90
24632;DHT22;59977;48.782;9.190;2022-07-29T22:54:10;21.60;99.90
24632;DHT22;59977;48.782;9.190;2022-07-29T22:56:36;21.60;99.90
24632;DHT22;59977;48.782;9.190;2022-07-29T22:59:02;21.60;99.90
24632;DHT22;59977;48.782;9.190;2022-07-29T23:01:27;21.60;99.90
24632;DHT22;59977;48.782;9.190;2022-07-29T23:03:53;21.60;99.90
24632;DHT22;59977;48.782;9.190;2022-07-29T23:06:19;21.60;99.90
24632;DHT22;59977;48.782;9.190;2022-07-29T23:08:45;21.60;99.90
24632;DHT22;59977;48.782;9.190;2022-07-29T23:11:10;21.50;99.90
24632;DHT22;59977;48.782;9.190;2022-07-29T23:13:36;21.50;99.90
24632;DHT22;59977;48.782;9.190;2022-07-29T23:16:02;21.50;99.90
24632;DHT22;59977;48.782;9.190;2022-07-29T23:18:27;21.40;99.90
24632;DHT22;59977;48.782;9.190;2022-07-29T23:20:53;21.40;99.90
24632;DHT22;59977;48.782;9.190;2022-07-29T23:23:18;21.40;99.90
24632;DHT22;59977;48.782;9.190;2022-07-29T23:25:44;21.30;99.90
24632;DHT22;59977;48.782;9.190;2022-07-29T23:28:10;21.30;99.90
24632;DHT22;59977;48.782;9.190;2022-07-29T23:30:36;21.40;99.90
24632;DHT22;59977;48.782;9.190;2022-07-29T23:33:01;21.30;99.90
24632;DHT22;59977;48.782;9.190;2022-07-29T23:35:27;21.30;99.90
24632;DHT22;59977;48.782;9.190;2022-07-29T23:37:52;21.30;99.90
24632;DHT22;59977;48.782;9.190;2022-07-29T23:40:18;21.20;99.90
24632;DHT22;59977;48.782;9.190;2022-07-29T23:42:44;21.10;99.90
24632;DHT22;59977;48.782;9.190;2022-07-29T23:45:11;21.10;99.90
24632;DHT22;59977;48.782;9.190;2022-07-29T23:47:37;21.10;99.90
24632;DHT22;59977;48.782;9.190;2022-07-29T23:50:04;21.20;99.90
24632;DHT22;59977;48.782;9.190;2022-07-29T23:52:30;21.20;99.90
24632;DHT22;59977;48.782;9.190;2022-07-29T23:54:55;21.20;99.90
24632;DHT22;59977;48.782;9.190;2022-07-29T23:57:21;21.20;99.90
24632;DHT22;59977;48.782;9.190;2022-07-29T23:59:48;21.20;99.90
